createdAt,value
2023-01-19T00:01:28.951Z,9.45
2023-01-19T00:03:55.560Z,10.48
2023-01-19T00:06:22.170Z,11.40
2023-01-19T00:08:50.224Z,11.82
2023-01-19T00:11:20.478Z,10.25
2023-01-19T00:13:50.589Z,11.43
2023-01-19T00:16:18.938Z,10.50
2023-01-19T00:18:46.123Z,10.15
2023-01-19T00:21:14.751Z,10.63
2023-01-19T00:23:41.281Z,11.00
2023-01-19T00:26:08.652Z,10.13
2023-01-19T00:28:35.147Z,11.38
2023-01-19T00:31:01.615Z,11.18
2023-01-19T00:33:28.286Z,11.43
2023-01-19T00:35:57.645Z,10.13
2023-01-19T00:38:24.237Z,11.38
2023-01-19T00:40:50.808Z,12.23
2023-01-19T00:43:17.300Z,11.52
2023-01-19T00:45:45.324Z,10.93
2023-01-19T00:48:11.836Z,11.75
2023-01-19T00:50:38.385Z,11.52
2023-01-19T00:53:04.956Z,11.85
2023-01-19T00:55:33.486Z,12.30
2023-01-19T00:58:00.003Z,10.20
2023-01-19T01:00:26.740Z,11.00
2023-01-19T01:02:54.166Z,11.52
2023-01-19T01:05:21.128Z,10.40
2023-01-19T01:10:22.999Z,12.00
2023-01-19T01:12:54.838Z,12.15
2023-01-19T01:15:26.942Z,11.48
2023-01-19T01:20:25.267Z,11.05
2023-01-19T01:22:53.754Z,11.43
2023-01-19T01:25:22.715Z,11.93
2023-01-19T01:30:16.479Z,10.82
2023-01-19T01:32:43.447Z,11.07
2023-01-19T01:35:11.323Z,11.63
2023-01-19T01:37:38.575Z,10.48
2023-01-19T01:40:06.521Z,11.50
2023-01-19T01:42:34.133Z,12.48
2023-01-19T01:45:06.180Z,12.00
2023-01-19T01:47:46.225Z,11.70
2023-01-19T01:50:27.910Z,12.48
2023-01-19T01:55:30.531Z,12.02
2023-01-19T01:58:01.281Z,12.90
2023-01-19T02:00:53.681Z,12.00
2023-01-19T02:03:23.583Z,11.40
2023-01-19T02:05:51.961Z,12.38
2023-01-19T02:09:03.808Z,12.32
2023-01-19T02:11:50.540Z,11.73
2023-01-19T02:14:17.101Z,12.30
2023-01-19T02:16:46.540Z,11.38
2023-01-19T02:19:18.037Z,11.07
2023-01-19T02:21:51.642Z,10.27
2023-01-19T02:24:18.831Z,11.07
2023-01-19T02:26:47.875Z,9.77
2023-01-19T02:29:21.038Z,10.48
2023-01-19T02:31:50.953Z,9.98
2023-01-19T02:34:19.991Z,10.30
2023-01-19T02:39:53.067Z,10.75
2023-01-19T02:44:56.685Z,9.65
2023-01-19T02:47:24.363Z,9.65
2023-01-19T02:50:32.871Z,9.82
2023-01-19T02:53:20.466Z,9.57
2023-01-19T02:56:04.829Z,10.40
2023-01-19T02:58:42.029Z,8.93
2023-01-19T03:01:21.566Z,9.73
2023-01-19T03:03:58.287Z,9.52
2023-01-19T03:06:40.958Z,9.95
2023-01-19T03:09:17.345Z,9.77
2023-01-19T03:11:52.295Z,9.85
2023-01-19T03:14:25.134Z,9.70
2023-01-19T03:16:59.314Z,8.93
2023-01-19T03:19:34.182Z,8.95
2023-01-19T03:22:05.376Z,9.57
2023-01-19T03:24:37.133Z,10.15
2023-01-19T03:27:11.069Z,10.20
2023-01-19T03:29:41.941Z,9.70
2023-01-19T03:32:14.489Z,10.23
2023-01-19T03:34:42.558Z,10.82
2023-01-19T03:37:11.391Z,11.60
2023-01-19T03:42:08.713Z,10.35
2023-01-19T03:49:32.427Z,10.35
2023-01-19T03:54:31.852Z,10.63
2023-01-19T03:56:59.026Z,9.80
2023-01-19T03:59:25.538Z,10.40
2023-01-19T04:04:18.716Z,10.15
2023-01-19T04:09:11.940Z,10.88
2023-01-19T04:11:38.404Z,12.32
2023-01-19T04:14:05.396Z,12.10
2023-01-19T04:16:32.571Z,12.25
2023-01-19T04:18:59.056Z,11.80
2023-01-19T04:21:25.778Z,12.23
2023-01-19T04:23:53.203Z,13.55
2023-01-19T04:26:20.332Z,11.90
2023-01-19T04:28:46.887Z,11.88
2023-01-19T04:31:14.446Z,12.80
2023-01-19T04:33:41.117Z,12.80
2023-01-19T04:36:08.547Z,11.77
2023-01-19T04:38:35.481Z,11.75
2023-01-19T04:41:02.075Z,10.48
2023-01-19T04:43:28.739Z,10.63
2023-01-19T04:48:21.978Z,9.60
2023-01-19T04:50:51.396Z,10.57
2023-01-19T04:53:18.481Z,10.73
2023-01-19T04:55:45.063Z,10.80
2023-01-19T04:58:11.597Z,10.43
2023-01-19T05:00:40.804Z,9.80
2023-01-19T05:03:07.466Z,10.98
2023-01-19T05:05:34.252Z,10.95
2023-01-19T05:08:00.854Z,10.82
2023-01-19T05:10:27.597Z,10.55
2023-01-19T05:15:21.434Z,11.00
2023-01-19T05:17:48.199Z,12.75
2023-01-19T05:20:16.419Z,12.13
2023-01-19T05:22:48.509Z,12.13
2023-01-19T05:25:15.150Z,11.27
2023-01-19T05:27:44.907Z,11.25
2023-01-19T05:30:13.517Z,11.75
2023-01-19T05:32:40.822Z,12.50
2023-01-19T05:35:08.561Z,12.25
2023-01-19T05:37:37.211Z,10.93
2023-01-19T05:40:04.263Z,12.25
2023-01-19T05:42:32.678Z,12.00
2023-01-19T05:44:59.520Z,12.68
2023-01-19T05:47:26.233Z,12.88
2023-01-19T05:49:52.942Z,11.90
2023-01-19T05:52:19.825Z,12.52
2023-01-19T05:54:46.578Z,12.38
2023-01-19T05:57:13.401Z,13.55
2023-01-19T05:59:41.540Z,11.85
2023-01-19T06:02:09.184Z,13.85
2023-01-19T06:04:36.076Z,11.55
2023-01-19T06:07:03.048Z,12.48
2023-01-19T06:09:33.967Z,12.32
2023-01-19T06:12:00.723Z,11.45
2023-01-19T06:14:27.636Z,10.98
2023-01-19T06:19:24.856Z,11.98
2023-01-19T06:21:52.508Z,11.50
2023-01-19T06:24:19.959Z,11.68
2023-01-19T06:26:49.557Z,11.35
2023-01-19T06:29:16.298Z,11.65
2023-01-19T06:31:45.919Z,11.35
2023-01-19T06:34:12.825Z,12.13
2023-01-19T06:36:39.599Z,12.07
2023-01-19T06:39:06.727Z,12.00
2023-01-19T06:41:34.701Z,11.82
2023-01-19T06:44:02.122Z,11.65
2023-01-19T06:46:29.858Z,11.90
2023-01-19T06:48:56.927Z,11.63
2023-01-19T06:51:23.939Z,12.32
2023-01-19T06:53:50.667Z,15.98
2023-01-19T06:56:17.434Z,13.13
2023-01-19T07:01:11.447Z,13.45
2023-01-19T07:06:06.852Z,12.90
2023-01-19T07:11:24.857Z,13.35
2023-01-19T07:13:56.044Z,13.43
2023-01-19T07:16:26.166Z,12.35
2023-01-19T07:18:57.092Z,13.13
2023-01-19T07:21:23.987Z,13.00
2023-01-19T07:26:25.011Z,12.45
2023-01-19T07:28:52.603Z,12.60
2023-01-19T07:31:20.190Z,12.98
2023-01-19T07:33:47.575Z,13.07
2023-01-19T07:36:14.647Z,12.75
2023-01-19T07:38:41.414Z,14.02
2023-01-19T07:41:12.795Z,13.18
2023-01-19T07:48:35.697Z,13.80
2023-01-19T07:51:12.540Z,12.32
2023-01-19T07:53:48.456Z,13.75
2023-01-19T07:56:18.552Z,13.82
2023-01-19T07:58:45.491Z,13.10
2023-01-19T08:01:16.104Z,13.23
2023-01-19T08:03:43.359Z,14.15
2023-01-19T08:06:44.403Z,13.05
2023-01-19T08:09:12.104Z,12.38
2023-01-19T08:11:39.011Z,12.57
2023-01-19T08:14:09.173Z,13.77
2023-01-19T08:29:34.012Z,12.63
2023-01-19T08:32:03.579Z,12.40
2023-01-19T08:34:31.184Z,12.20
2023-01-19T08:36:58.453Z,11.80
2023-01-19T08:39:25.522Z,11.88
2023-01-19T08:41:52.590Z,11.75
2023-01-19T08:44:19.640Z,10.90
2023-01-19T08:46:47.287Z,11.48
2023-01-19T08:51:46.559Z,11.45
2023-01-19T08:56:40.518Z,12.57
2023-01-19T08:59:10.865Z,13.55
2023-01-19T09:04:09.254Z,11.45
2023-01-19T09:06:36.112Z,11.60
2023-01-19T09:09:02.929Z,11.63
2023-01-19T09:11:30.870Z,11.15
2023-01-19T09:16:27.405Z,10.63
2023-01-19T09:18:54.202Z,12.35
2023-01-19T09:21:21.330Z,12.02
2023-01-19T09:23:49.257Z,12.88
2023-01-19T09:28:43.312Z,12.55
2023-01-19T09:33:36.820Z,10.20
2023-01-19T09:38:34.546Z,10.60
2023-01-19T09:41:01.518Z,9.48
2023-01-19T09:43:50.709Z,9.90
2023-01-19T09:46:44.111Z,9.75
2023-01-19T09:49:23.420Z,11.13
2023-01-19T09:51:51.504Z,11.85
2023-01-19T09:54:24.033Z,10.07
2023-01-19T09:56:52.896Z,10.52
2023-01-19T09:59:30.935Z,9.88
2023-01-19T10:02:06.099Z,9.80
2023-01-19T10:07:26.254Z,9.70
2023-01-19T10:10:28.805Z,8.90
2023-01-19T10:12:55.484Z,8.35
2023-01-19T10:15:37.627Z,9.20
2023-01-19T10:18:17.324Z,9.18
2023-01-19T10:24:06.654Z,9.10
2023-01-19T10:26:44.622Z,9.27
2023-01-19T10:29:21.179Z,8.93
2023-01-19T10:31:51.920Z,9.10
2023-01-19T10:34:23.675Z,9.27
2023-01-19T10:36:58.910Z,8.73
2023-01-19T10:39:28.212Z,8.55
2023-01-19T10:41:55.334Z,9.38
2023-01-19T10:44:28.075Z,8.25
2023-01-19T10:49:44.605Z,8.15
2023-01-19T10:52:41.739Z,8.20
2023-01-19T10:55:36.299Z,7.60
2023-01-19T11:00:41.689Z,7.05
2023-01-19T11:03:24.984Z,8.10
2023-01-19T11:05:51.911Z,7.13
2023-01-19T11:08:30.107Z,7.20
2023-01-19T11:11:04.542Z,6.45
2023-01-19T11:13:32.566Z,6.25
2023-01-19T11:18:52.617Z,5.85
2023-01-19T11:21:27.093Z,5.97
2023-01-19T11:23:58.969Z,6.25
2023-01-19T11:26:31.359Z,7.05
2023-01-19T11:28:59.844Z,6.20
2023-01-19T11:31:29.562Z,6.25
2023-01-19T11:34:04.970Z,5.65
2023-01-19T11:36:34.571Z,5.82
2023-01-19T11:39:24.327Z,5.82
2023-01-19T11:41:59.712Z,6.10
2023-01-19T11:44:55.802Z,6.32
2023-01-19T11:47:28.236Z,5.63
2023-01-19T11:50:02.868Z,5.90
2023-01-19T11:52:48.119Z,5.53
2023-01-19T11:55:23.882Z,5.22
2023-01-19T11:57:54.514Z,5.57
2023-01-19T12:00:36.395Z,5.28
2023-01-19T12:03:15.798Z,5.55
2023-01-19T12:05:50.398Z,5.95
2023-01-19T12:08:25.441Z,5.32
2023-01-19T12:10:54.356Z,5.28
2023-01-19T12:13:24.313Z,5.07
2023-01-19T12:16:06.403Z,5.55
2023-01-19T12:21:25.429Z,5.10
2023-01-19T12:24:16.578Z,5.60
2023-01-19T12:26:55.005Z,5.40
2023-01-19T12:29:24.701Z,5.80
2023-01-19T12:32:21.448Z,4.90
2023-01-19T12:34:55.877Z,4.90
2023-01-19T12:37:40.608Z,5.20
2023-01-19T12:40:39.890Z,5.43
2023-01-19T12:43:06.683Z,5.55
2023-01-19T12:45:36.055Z,5.07
2023-01-19T12:48:04.382Z,5.25
2023-01-19T12:50:38.628Z,5.25
2023-01-19T12:53:20.598Z,5.32
2023-01-19T12:55:59.896Z,4.90
2023-01-19T12:58:27.494Z,4.45
2023-01-19T13:01:20.988Z,4.10
2023-01-19T13:04:27.244Z,4.10
2023-01-19T13:09:34.787Z,3.97
2023-01-19T13:14:51.122Z,4.05
2023-01-19T13:17:34.022Z,4.55
2023-01-19T13:20:06.059Z,4.40
2023-01-19T13:22:50.634Z,4.93
2023-01-19T13:25:48.798Z,4.30
2023-01-19T13:28:20.556Z,4.13
2023-01-19T13:30:59.340Z,4.22
2023-01-19T13:33:30.257Z,5.38
2023-01-19T13:35:59.110Z,4.38
2023-01-19T13:38:27.851Z,4.45
2023-01-19T13:41:00.134Z,4.32
2023-01-19T13:43:37.129Z,4.30
2023-01-19T13:46:04.610Z,4.35
2023-01-19T13:48:32.688Z,4.45
2023-01-19T13:53:35.618Z,4.85
2023-01-19T13:56:20.864Z,4.70
2023-01-19T13:59:00.954Z,4.97
2023-01-19T14:01:29.335Z,4.70
2023-01-19T14:03:57.498Z,5.00
2023-01-19T14:06:40.722Z,4.63
2023-01-19T14:09:39.778Z,4.53
2023-01-19T14:12:15.825Z,4.90
2023-01-19T14:14:44.122Z,5.40
2023-01-19T14:17:43.147Z,5.90
2023-01-19T14:20:30.164Z,4.60
2023-01-19T14:22:57.429Z,4.88
2023-01-19T14:25:33.540Z,4.95
2023-01-19T14:28:29.289Z,4.60
2023-01-19T14:31:17.764Z,5.00
2023-01-19T14:33:47.220Z,5.38
2023-01-19T14:36:15.606Z,5.72
2023-01-19T14:38:48.475Z,4.90
2023-01-19T14:41:35.988Z,5.32
2023-01-19T14:44:17.709Z,6.05
2023-01-19T14:46:48.055Z,5.72
2023-01-19T14:49:27.539Z,5.38
2023-01-19T14:51:56.048Z,5.40
2023-01-19T14:54:38.440Z,6.68
2023-01-19T14:57:06.076Z,6.00
2023-01-19T15:02:00.067Z,5.38
2023-01-19T15:04:27.148Z,6.10
2023-01-19T15:19:17.809Z,6.20
2023-01-19T15:21:47.160Z,6.25
2023-01-19T15:24:17.571Z,10.57
2023-01-19T15:26:45.251Z,7.63
2023-01-19T15:31:50.776Z,7.50
2023-01-19T15:36:45.080Z,7.63
2023-01-19T15:41:40.380Z,7.38
2023-01-19T15:52:19.173Z,6.80
2023-01-19T15:54:46.013Z,8.45
2023-01-19T15:57:15.062Z,6.95
2023-01-19T15:59:41.940Z,6.90
2023-01-19T16:04:36.316Z,6.72
2023-01-19T16:07:03.348Z,6.70
2023-01-19T16:09:30.043Z,6.75
2023-01-19T16:11:59.335Z,7.47
2023-01-19T16:14:28.651Z,7.30
2023-01-19T16:16:55.747Z,6.75
2023-01-19T16:19:23.018Z,6.38
2023-01-19T16:21:49.814Z,7.20
2023-01-19T16:24:16.606Z,6.50
2023-01-19T16:26:43.492Z,8.18
2023-01-19T16:31:42.817Z,6.68
2023-01-19T16:36:40.538Z,6.90
2023-01-19T16:41:38.931Z,7.07
2023-01-19T16:44:06.514Z,7.63
2023-01-19T16:46:37.743Z,7.20
2023-01-19T16:51:41.818Z,7.82
2023-01-19T16:56:39.422Z,15.18
2023-01-19T16:59:06.111Z,7.10
2023-01-19T17:01:33.537Z,5.43
2023-01-19T17:04:00.228Z,6.90
2023-01-19T17:06:28.261Z,9.57
2023-01-19T17:08:55.280Z,9.88
2023-01-19T17:11:31.374Z,7.57
2023-01-19T17:14:00.658Z,6.72
2023-01-19T17:16:29.347Z,5.68
2023-01-19T17:19:01.317Z,7.00
2023-01-19T17:21:28.906Z,6.28
2023-01-19T17:24:00.748Z,6.68
2023-01-19T17:26:31.389Z,6.90
2023-01-19T17:29:02.635Z,7.75
2023-01-19T17:33:58.050Z,6.47
2023-01-19T17:36:27.688Z,6.57
2023-01-19T17:38:56.648Z,6.72
2023-01-19T17:41:35.249Z,7.88
2023-01-19T17:44:03.642Z,8.95
2023-01-19T17:46:32.647Z,6.45
2023-01-19T17:49:01.891Z,6.88
2023-01-19T17:51:29.594Z,6.70
2023-01-19T17:53:57.251Z,7.00
2023-01-19T17:56:30.125Z,6.13
2023-01-19T17:59:01.673Z,7.78
2023-01-19T18:01:31.408Z,7.05
2023-01-19T18:03:59.047Z,7.22
2023-01-19T18:06:29.002Z,6.93
2023-01-19T18:08:57.397Z,7.10
2023-01-19T18:11:24.394Z,7.75
2023-01-19T18:13:51.865Z,7.82
2023-01-19T18:16:26.467Z,7.90
2023-01-19T18:18:54.597Z,7.40
2023-01-19T18:21:23.019Z,7.18
2023-01-19T18:24:01.181Z,7.93
2023-01-19T18:26:28.272Z,8.00
2023-01-19T18:28:57.151Z,7.22
2023-01-19T18:31:27.567Z,7.55
2023-01-19T18:33:55.175Z,7.55
2023-01-19T18:36:24.115Z,8.32
2023-01-19T18:38:50.972Z,8.00
2023-01-19T18:41:20.635Z,8.75
2023-01-19T18:43:48.820Z,7.28
2023-01-19T18:46:16.777Z,9.00
2023-01-19T18:48:43.804Z,9.35
2023-01-19T18:51:16.003Z,7.50
2023-01-19T18:53:43.631Z,7.15
2023-01-19T18:56:15.543Z,7.47
2023-01-19T18:58:43.497Z,7.57
2023-01-19T19:01:21.850Z,8.38
2023-01-19T19:03:50.037Z,7.78
2023-01-19T19:06:19.301Z,7.45
2023-01-19T19:08:57.395Z,8.20
2023-01-19T19:11:26.396Z,15.40
2023-01-19T19:13:58.401Z,14.02
2023-01-19T19:16:25.711Z,8.55
2023-01-19T19:18:52.536Z,7.72
2023-01-19T19:21:24.271Z,7.13
2023-01-19T19:23:56.287Z,8.23
2023-01-19T19:26:28.205Z,8.25
2023-01-19T19:28:58.257Z,8.18
2023-01-19T19:31:26.942Z,7.85
2023-01-19T19:33:56.029Z,8.65
2023-01-19T19:36:25.295Z,9.10
2023-01-19T19:38:52.138Z,7.70
2023-01-19T19:41:27.047Z,8.52
2023-01-19T19:43:55.580Z,9.45
2023-01-19T19:46:24.559Z,8.60
2023-01-19T19:48:52.441Z,10.07
2023-01-19T19:51:27.943Z,8.93
2023-01-19T19:53:57.423Z,8.00
2023-01-19T19:56:26.358Z,9.65
2023-01-19T19:58:55.271Z,7.60
2023-01-19T20:01:27.602Z,8.38
2023-01-19T20:04:03.138Z,8.52
2023-01-19T20:06:29.879Z,8.35
2023-01-19T20:08:56.932Z,17.13
2023-01-19T20:11:27.142Z,8.70
2023-01-19T20:13:54.217Z,8.80
2023-01-19T20:16:26.294Z,8.10
2023-01-19T20:18:56.775Z,8.73
2023-01-19T20:21:28.219Z,9.38
2023-01-19T20:23:57.209Z,9.27
2023-01-19T20:26:27.536Z,8.50
2023-01-19T20:28:54.992Z,8.48
2023-01-19T20:31:25.247Z,27.77
2023-01-19T20:33:53.655Z,11.82
2023-01-19T20:36:24.195Z,8.38
2023-01-19T20:38:53.085Z,9.27
2023-01-19T20:41:22.009Z,8.77
2023-01-19T20:43:52.064Z,8.65
2023-01-19T20:46:18.653Z,9.23
2023-01-19T20:48:50.846Z,8.27
2023-01-19T20:51:18.962Z,8.38
2023-01-19T20:53:47.211Z,8.07
2023-01-19T20:56:19.230Z,8.82
2023-01-19T20:58:46.125Z,9.13
2023-01-19T21:01:22.717Z,8.57
2023-01-19T21:03:51.008Z,8.52
2023-01-19T21:06:18.888Z,9.25
2023-01-19T21:08:46.113Z,9.35
2023-01-19T21:11:13.385Z,13.40
2023-01-19T21:13:45.656Z,8.65
2023-01-19T21:16:12.959Z,11.00
2023-01-19T21:18:39.956Z,10.80
2023-01-19T21:21:09.117Z,13.27
2023-01-19T21:23:37.369Z,10.68
2023-01-19T21:26:04.050Z,9.90
2023-01-19T21:28:31.560Z,9.38
2023-01-19T21:30:58.501Z,8.23
2023-01-19T21:33:27.763Z,9.45
2023-01-19T21:35:57.073Z,9.20
2023-01-19T21:38:29.579Z,9.85
2023-01-19T21:40:58.350Z,9.20
2023-01-19T21:43:28.607Z,8.75
2023-01-19T21:45:55.221Z,8.85
2023-01-19T21:48:21.835Z,9.38
2023-01-19T21:50:57.127Z,9.30
2023-01-19T21:53:26.764Z,9.05
2023-01-19T21:55:53.369Z,9.90
2023-01-19T21:58:22.609Z,9.27
2023-01-19T22:00:49.418Z,9.13
2023-01-19T22:03:16.581Z,10.05
2023-01-19T22:05:43.418Z,9.10
2023-01-19T22:08:10.192Z,9.45
2023-01-19T22:10:37.948Z,8.13
2023-01-19T22:13:06.813Z,8.73
2023-01-19T22:15:33.616Z,8.98
2023-01-19T22:18:00.260Z,9.00
2023-01-19T22:20:26.986Z,9.50
2023-01-19T22:22:53.740Z,8.23
2023-01-19T22:25:23.906Z,9.20
2023-01-19T22:27:50.547Z,7.95
2023-01-19T22:30:17.946Z,8.93
2023-01-19T22:32:46.353Z,9.15
2023-01-19T22:35:13.101Z,10.18
2023-01-19T22:37:39.789Z,8.48
2023-01-19T22:40:07.013Z,9.02
2023-01-19T22:42:33.597Z,8.57
2023-01-19T22:47:27.064Z,9.27
2023-01-19T22:49:53.713Z,9.18
2023-01-19T22:52:20.255Z,8.70
2023-01-19T22:54:46.776Z,9.73
2023-01-19T22:57:13.185Z,8.40
2023-01-19T22:59:39.734Z,8.98
2023-01-19T23:02:06.382Z,9.50
2023-01-19T23:04:32.955Z,8.75
2023-01-19T23:09:25.917Z,9.52
2023-01-19T23:11:52.938Z,8.68
2023-01-19T23:14:23.500Z,11.60
2023-01-19T23:16:50.217Z,9.63
2023-01-19T23:21:45.468Z,9.98
2023-01-19T23:26:42.220Z,8.35
2023-01-19T23:29:13.021Z,8.52
2023-01-19T23:31:42.966Z,8.43
2023-01-19T23:36:40.027Z,8.98
2023-01-19T23:39:14.530Z,9.35
2023-01-19T23:41:41.290Z,8.75
2023-01-19T23:44:08.200Z,9.40
2023-01-19T23:46:37.679Z,9.90
2023-01-19T23:49:04.556Z,11.35
2023-01-19T23:51:32.777Z,9.88
2023-01-19T23:54:00.136Z,8.85
2023-01-19T23:56:29.673Z,8.65
2023-01-19T23:58:58.728Z,11.98
